createdAt,value
2017-08-10T00:01:44.557Z,9.37
2017-08-10T00:04:14.489Z,11.03
2017-08-10T00:06:44.785Z,11.00
2017-08-10T00:09:14.626Z,9.70
2017-08-10T00:11:44.989Z,10.40
2017-08-10T00:14:14.869Z,10.03
2017-08-10T00:16:44.782Z,9.23
2017-08-10T00:19:15.067Z,10.23
2017-08-10T00:21:44.932Z,10.70
2017-08-10T00:24:15.312Z,10.57
2017-08-10T00:26:45.173Z,10.07
2017-08-10T00:29:15.379Z,10.57
2017-08-10T00:31:45.319Z,10.47
2017-08-10T00:34:15.586Z,10.13
2017-08-10T00:36:45.452Z,10.00
2017-08-10T00:39:15.719Z,10.40
2017-08-10T00:41:45.792Z,10.10
2017-08-10T00:44:16.063Z,9.23
2017-08-10T00:46:45.918Z,11.30
2017-08-10T00:49:16.146Z,10.00
2017-08-10T00:51:46.010Z,11.50
2017-08-10T00:54:16.232Z,10.97
2017-08-10T00:56:46.074Z,11.00
2017-08-10T00:59:16.354Z,11.93
2017-08-10T01:01:46.206Z,10.13
2017-08-10T01:04:16.425Z,11.63
2017-08-10T01:06:46.286Z,10.80
2017-08-10T01:09:16.489Z,12.10
2017-08-10T01:11:46.361Z,11.53
2017-08-10T01:14:16.623Z,11.00
2017-08-10T01:16:46.489Z,11.30
2017-08-10T01:19:16.697Z,10.77
2017-08-10T01:21:46.572Z,11.07
2017-08-10T01:24:16.807Z,9.67
2017-08-10T01:26:46.707Z,11.30
2017-08-10T01:29:16.579Z,11.20
2017-08-10T01:31:46.797Z,11.03
2017-08-10T01:34:16.748Z,11.17
2017-08-10T01:36:47.106Z,11.70
2017-08-10T01:39:16.948Z,11.53
2017-08-10T01:41:47.255Z,11.57
2017-08-10T01:44:17.126Z,13.53
2017-08-10T01:46:47.406Z,11.30
2017-08-10T01:49:17.263Z,11.70
2017-08-10T01:51:47.470Z,12.47
2017-08-10T01:54:17.338Z,12.40
2017-08-10T01:56:47.649Z,12.30
2017-08-10T01:59:17.523Z,13.10
2017-08-10T02:01:47.723Z,11.30
2017-08-10T02:04:17.580Z,10.80
2017-08-10T02:06:47.913Z,10.87
2017-08-10T02:09:17.769Z,11.73
2017-08-10T02:11:48.165Z,11.10
2017-08-10T02:14:18.092Z,12.07
2017-08-10T02:16:48.296Z,11.30
2017-08-10T02:19:18.142Z,9.77
2017-08-10T02:21:48.404Z,11.10
2017-08-10T02:24:18.266Z,12.10
2017-08-10T02:26:48.491Z,10.63
2017-08-10T02:29:18.357Z,10.73
2017-08-10T02:31:48.586Z,11.40
2017-08-10T02:34:18.471Z,11.00
2017-08-10T02:36:48.727Z,11.10
2017-08-10T02:39:18.632Z,13.10
2017-08-10T02:41:48.849Z,11.10
2017-08-10T02:44:18.703Z,11.30
2017-08-10T02:46:48.616Z,11.93
2017-08-10T02:49:18.853Z,11.07
2017-08-10T02:51:48.695Z,11.17
2017-08-10T02:54:18.568Z,9.80
2017-08-10T02:56:49.360Z,11.90
2017-08-10T02:59:19.207Z,11.57
2017-08-10T03:01:49.476Z,11.13
2017-08-10T03:04:19.352Z,10.87
2017-08-10T03:06:49.617Z,11.87
2017-08-10T03:09:19.504Z,12.20
2017-08-10T03:11:49.717Z,11.03
2017-08-10T03:14:19.565Z,11.10
2017-08-10T03:16:50.709Z,11.40
2017-08-10T03:19:20.579Z,10.93
2017-08-10T03:21:50.847Z,11.37
2017-08-10T03:24:20.702Z,11.87
2017-08-10T03:26:50.584Z,13.57
2017-08-10T03:29:20.794Z,13.67
2017-08-10T03:31:50.647Z,12.10
2017-08-10T03:34:20.539Z,11.77
2017-08-10T03:36:50.849Z,11.27
2017-08-10T03:39:20.717Z,11.57
2017-08-10T03:41:51.002Z,12.70
2017-08-10T03:44:20.858Z,11.63
2017-08-10T03:46:50.748Z,12.10
2017-08-10T03:49:21.038Z,11.80
2017-08-10T03:51:50.901Z,11.63
2017-08-10T03:54:21.173Z,11.63
2017-08-10T03:56:51.034Z,11.80
2017-08-10T03:59:21.258Z,12.80
2017-08-10T04:01:51.216Z,12.20
2017-08-10T04:04:21.538Z,13.17
2017-08-10T04:06:51.453Z,13.70
2017-08-10T04:09:21.776Z,12.17
2017-08-10T04:11:51.626Z,14.10
2017-08-10T04:14:21.825Z,13.93
2017-08-10T04:16:51.686Z,13.40
2017-08-10T04:19:21.575Z,12.30
2017-08-10T04:21:51.921Z,12.50
2017-08-10T04:24:21.776Z,11.40
2017-08-10T04:26:52.079Z,11.90
2017-08-10T04:29:21.934Z,10.70
2017-08-10T04:31:52.152Z,12.63
2017-08-10T04:34:22.015Z,12.10
2017-08-10T04:36:52.222Z,12.63
2017-08-10T04:39:22.102Z,11.60
2017-08-10T04:41:52.373Z,12.17
2017-08-10T04:44:22.231Z,12.27
2017-08-10T04:46:52.538Z,12.80
2017-08-10T04:49:22.480Z,10.40
2017-08-10T04:51:52.807Z,12.83
2017-08-10T04:54:22.693Z,11.50
2017-08-10T04:56:53.045Z,12.77
2017-08-10T04:59:22.914Z,12.60
2017-08-10T05:01:52.789Z,12.50
2017-08-10T05:04:23.038Z,13.27
2017-08-10T05:06:52.926Z,13.53
2017-08-10T05:09:23.176Z,13.03
2017-08-10T05:11:53.022Z,12.93
2017-08-10T05:14:23.329Z,15.30
2017-08-10T05:16:53.174Z,14.47
2017-08-10T05:19:23.491Z,16.13
2017-08-10T05:21:53.354Z,16.20
2017-08-10T05:24:23.578Z,14.63
2017-08-10T05:26:53.433Z,16.23
2017-08-10T05:29:23.724Z,14.60
2017-08-10T05:31:53.571Z,15.43
2017-08-10T05:34:23.855Z,15.10
2017-08-10T05:36:53.702Z,17.13
2017-08-10T05:39:23.620Z,16.20
2017-08-10T05:41:53.906Z,19.67
2017-08-10T05:44:23.857Z,17.10
2017-08-10T05:46:53.730Z,17.93
2017-08-10T05:49:23.937Z,15.93
2017-08-10T05:51:53.826Z,18.13
2017-08-10T05:54:23.702Z,16.67
2017-08-10T05:56:53.906Z,16.70
2017-08-10T05:59:23.770Z,17.00
2017-08-10T06:01:53.638Z,16.13
2017-08-10T06:04:23.954Z,16.40
2017-08-10T06:06:53.926Z,15.57
2017-08-10T06:09:24.197Z,13.60
2017-08-10T06:11:54.209Z,10.07
2017-08-10T06:14:24.464Z,10.50
2017-08-10T06:16:54.332Z,9.03
2017-08-10T06:19:24.586Z,7.47
2017-08-10T06:21:54.445Z,8.07
2017-08-10T06:24:24.660Z,7.90
2017-08-10T06:26:54.522Z,7.80
2017-08-10T06:29:24.853Z,7.50
2017-08-10T06:31:54.704Z,7.67
2017-08-10T06:34:24.576Z,6.43
2017-08-10T06:36:54.782Z,6.07
2017-08-10T06:39:24.654Z,6.40
2017-08-10T06:41:54.879Z,6.10
2017-08-10T06:44:24.731Z,5.93
2017-08-10T06:46:54.682Z,5.27
2017-08-10T06:49:24.934Z,6.77
2017-08-10T06:51:54.782Z,6.57
2017-08-10T06:54:24.704Z,6.10
2017-08-10T06:56:55.010Z,5.63
2017-08-10T06:59:24.903Z,5.30
2017-08-10T07:01:54.790Z,5.23
2017-08-10T07:04:24.986Z,6.17
2017-08-10T07:06:54.853Z,6.17
2017-08-10T07:09:24.771Z,5.13
2017-08-10T07:11:54.987Z,5.70
2017-08-10T07:14:25.795Z,6.33
2017-08-10T07:16:56.058Z,6.40
2017-08-10T07:19:25.961Z,5.87
2017-08-10T07:21:56.287Z,6.00
2017-08-10T07:24:34.275Z,5.30
2017-08-10T07:27:06.091Z,5.67
2017-08-10T07:29:35.974Z,4.40
2017-08-10T07:38:09.179Z,4.10
2017-08-10T07:40:39.883Z,3.50
2017-08-10T08:05:31.958Z,2.40
2017-08-10T08:08:14.056Z,3.97
2017-08-10T08:10:59.256Z,2.53
2017-08-10T08:13:32.328Z,2.77
2017-08-10T08:16:14.723Z,2.93
2017-08-10T08:18:44.585Z,3.10
2017-08-10T08:21:15.007Z,2.67
2017-08-10T08:23:44.916Z,2.87
2017-08-10T08:26:14.781Z,3.13
2017-08-10T08:28:45.159Z,3.10
2017-08-10T08:31:15.093Z,3.77
2017-08-10T08:33:45.375Z,2.90
2017-08-10T08:36:15.305Z,3.03
2017-08-10T08:38:45.691Z,3.70
2017-08-10T08:41:15.634Z,3.20
2017-08-10T08:43:45.924Z,5.23
2017-08-10T08:49:18.890Z,2.93
2017-08-10T08:54:41.931Z,2.40
2017-08-10T08:57:12.615Z,2.67
2017-08-10T08:59:42.861Z,2.10
2017-08-10T09:02:12.720Z,2.87
2017-08-10T09:07:37.495Z,2.37
2017-08-10T09:10:07.847Z,2.30
2017-08-10T09:15:39.985Z,2.70
2017-08-10T09:18:09.891Z,2.67
2017-08-10T09:20:40.069Z,3.00
2017-08-10T09:23:10.038Z,4.60
2017-08-10T09:25:40.242Z,3.83
2017-08-10T09:28:10.122Z,2.73
2017-08-10T09:30:40.429Z,2.80
2017-08-10T09:33:10.295Z,5.00
2017-08-10T09:35:40.489Z,4.23
2017-08-10T09:38:10.390Z,3.90
2017-08-10T09:43:58.324Z,3.30
2017-08-10T09:46:28.326Z,2.70
2017-08-10T09:48:58.665Z,2.67
2017-08-10T09:51:28.500Z,2.40
2017-08-10T09:53:58.837Z,2.53
2017-08-10T09:56:28.673Z,2.50
2017-08-10T09:58:58.998Z,2.10
2017-08-10T10:01:40.958Z,2.40
2017-08-10T10:04:11.227Z,2.57
2017-08-10T10:06:41.099Z,2.87
2017-08-10T10:09:11.349Z,2.60
2017-08-10T10:11:41.198Z,2.63
2017-08-10T10:14:11.525Z,1.73
2017-08-10T10:16:42.198Z,1.90
2017-08-10T10:19:16.813Z,3.03
2017-08-10T10:21:52.080Z,2.70
2017-08-10T10:24:26.334Z,2.10
2017-08-10T10:29:47.627Z,2.20
2017-08-10T10:32:17.539Z,2.00
2017-08-10T10:34:47.755Z,2.70
2017-08-10T10:39:52.813Z,3.57
2017-08-10T10:42:25.963Z,4.10
2017-08-10T10:47:54.908Z,3.40
2017-08-10T10:50:25.176Z,3.40
2017-08-10T10:52:55.149Z,3.60
2017-08-10T10:55:25.424Z,3.57
2017-08-10T10:57:55.322Z,3.50
2017-08-10T11:00:25.543Z,3.93
2017-08-10T11:02:55.407Z,3.20
2017-08-10T11:05:25.679Z,3.93
2017-08-10T11:07:55.544Z,3.13
2017-08-10T11:10:25.806Z,2.87
2017-08-10T11:12:55.695Z,2.60
2017-08-10T11:15:25.944Z,2.70
2017-08-10T11:17:55.828Z,2.30
2017-08-10T11:20:25.742Z,2.60
2017-08-10T11:22:56.203Z,3.40
2017-08-10T11:25:26.084Z,2.23
2017-08-10T11:27:56.388Z,2.63
2017-08-10T11:30:26.272Z,3.13
2017-08-10T11:32:56.625Z,2.67
2017-08-10T11:35:28.801Z,3.23
2017-08-10T11:37:59.161Z,3.03
2017-08-10T11:40:29.051Z,2.47
2017-08-10T11:42:59.317Z,2.73
2017-08-10T11:45:29.246Z,3.03
2017-08-10T11:47:59.800Z,3.10
2017-08-10T11:50:29.834Z,3.73
2017-08-10T11:53:00.303Z,1.97
2017-08-10T11:55:30.202Z,2.53
2017-08-10T11:58:01.043Z,2.97
2017-08-10T12:00:30.962Z,2.80
2017-08-10T12:03:01.374Z,2.70
2017-08-10T12:05:31.270Z,3.00
2017-08-10T12:08:01.719Z,2.80
2017-08-10T12:10:31.612Z,3.10
2017-08-10T12:13:01.929Z,4.43
2017-08-10T12:15:31.834Z,4.10
2017-08-10T12:18:01.714Z,3.50
2017-08-10T12:20:32.142Z,3.60
2017-08-10T12:23:02.009Z,3.50
2017-08-10T12:25:33.447Z,4.10
2017-08-10T12:28:03.367Z,4.27
2017-08-10T12:30:33.784Z,4.50
2017-08-10T12:33:03.649Z,4.63
2017-08-10T12:35:33.987Z,4.43
2017-08-10T12:38:03.842Z,4.20
2017-08-10T12:40:34.178Z,5.70
2017-08-10T12:43:04.050Z,4.50
2017-08-10T12:45:34.270Z,4.13
2017-08-10T12:48:04.122Z,3.70
2017-08-10T12:50:34.346Z,4.03
2017-08-10T12:53:04.306Z,4.50
2017-08-10T12:55:34.574Z,5.00
2017-08-10T12:58:04.538Z,4.60
2017-08-10T13:00:34.756Z,4.20
2017-08-10T13:03:04.663Z,4.60
2017-08-10T13:05:34.846Z,3.93
2017-08-10T13:08:04.729Z,5.20
2017-08-10T13:10:34.673Z,4.50
2017-08-10T13:13:05.051Z,5.00
2017-08-10T13:15:34.995Z,4.03
2017-08-10T13:18:05.242Z,4.27
2017-08-10T13:20:35.219Z,4.03
2017-08-10T13:23:05.470Z,4.10
2017-08-10T13:25:35.345Z,4.40
2017-08-10T13:28:05.596Z,3.97
2017-08-10T13:30:35.478Z,4.43
2017-08-10T13:33:05.822Z,4.07
2017-08-10T13:35:35.698Z,3.50
2017-08-10T13:38:05.975Z,3.93
2017-08-10T13:40:35.831Z,3.40
2017-08-10T13:43:05.721Z,4.20
2017-08-10T13:45:35.938Z,3.80
2017-08-10T13:48:05.808Z,3.57
2017-08-10T13:50:35.697Z,3.90
2017-08-10T13:53:06.020Z,3.73
2017-08-10T13:55:35.884Z,3.90
2017-08-10T13:58:05.885Z,3.97
2017-08-10T14:00:36.286Z,3.40
2017-08-10T14:03:06.214Z,3.53
2017-08-10T14:05:36.600Z,2.87
2017-08-10T14:08:06.513Z,4.67
2017-08-10T14:10:36.814Z,3.00
2017-08-10T14:13:06.692Z,3.60
2017-08-10T14:15:36.955Z,3.40
2017-08-10T14:18:06.841Z,4.43
2017-08-10T14:20:36.778Z,3.90
2017-08-10T14:23:06.980Z,3.47
2017-08-10T14:25:36.834Z,3.20
2017-08-10T14:28:06.742Z,4.27
2017-08-10T14:30:37.179Z,3.80
2017-08-10T14:33:07.041Z,2.97
2017-08-10T14:35:37.277Z,3.00
2017-08-10T14:38:07.145Z,3.00
2017-08-10T14:40:37.418Z,2.83
2017-08-10T14:43:07.376Z,2.90
2017-08-10T14:45:37.738Z,3.83
2017-08-10T14:48:07.884Z,3.53
2017-08-10T14:50:38.330Z,3.30
2017-08-10T14:53:08.220Z,2.50
2017-08-10T14:55:38.537Z,3.00
2017-08-10T14:58:08.418Z,2.70
2017-08-10T15:00:38.650Z,2.60
2017-08-10T15:03:08.508Z,2.97
2017-08-10T15:05:38.802Z,2.67
2017-08-10T15:08:08.674Z,2.83
2017-08-10T15:10:39.026Z,2.20
2017-08-10T15:13:08.936Z,2.07
2017-08-10T15:15:39.177Z,2.23
2017-08-10T15:18:09.065Z,3.03
2017-08-10T15:20:39.416Z,3.07
2017-08-10T15:23:09.376Z,2.87
2017-08-10T15:25:40.014Z,2.63
2017-08-10T15:28:10.049Z,2.30
2017-08-10T15:30:40.392Z,2.30
2017-08-10T15:33:10.294Z,2.93
2017-08-10T15:35:40.633Z,2.77
2017-08-10T15:38:10.537Z,2.63
2017-08-10T15:40:40.885Z,2.77
2017-08-10T15:43:10.758Z,2.50
2017-08-10T15:45:40.667Z,2.67
2017-08-10T15:48:11.045Z,2.63
2017-08-10T15:50:40.966Z,3.10
2017-08-10T15:53:11.207Z,3.03
2017-08-10T15:55:41.096Z,2.53
2017-08-10T15:58:11.360Z,2.60
2017-08-10T16:00:41.319Z,2.13
2017-08-10T16:03:11.637Z,2.20
2017-08-10T16:05:41.518Z,2.90
2017-08-10T16:08:11.770Z,2.37
2017-08-10T16:10:41.674Z,2.40
2017-08-10T16:13:11.990Z,2.40
2017-08-10T16:15:41.852Z,2.27
2017-08-10T16:18:11.739Z,2.37
2017-08-10T16:20:42.131Z,2.50
2017-08-10T16:23:12.035Z,2.47
2017-08-10T16:25:42.275Z,1.80
2017-08-10T16:28:12.192Z,2.10
2017-08-10T16:30:42.431Z,1.87
2017-08-10T16:33:12.301Z,2.50
2017-08-10T16:35:42.502Z,2.30
2017-08-10T16:38:12.388Z,2.27
2017-08-10T16:40:42.615Z,1.73
2017-08-10T16:43:12.555Z,2.20
2017-08-10T16:45:42.754Z,2.47
2017-08-10T16:48:12.617Z,2.00
2017-08-10T16:50:42.851Z,1.83
2017-08-10T16:53:12.739Z,2.57
2017-08-10T16:55:42.632Z,2.23
2017-08-10T16:58:12.930Z,1.87
2017-08-10T17:00:42.798Z,2.30
2017-08-10T17:03:12.684Z,2.60
2017-08-10T17:05:42.932Z,2.40
2017-08-10T17:08:12.793Z,2.60
2017-08-10T17:10:42.774Z,2.57
2017-08-10T17:13:16.377Z,2.50
2017-08-10T17:15:46.319Z,2.57
2017-08-10T17:18:16.531Z,2.47
2017-08-10T17:20:46.621Z,1.97
2017-08-10T17:23:16.919Z,2.80
2017-08-10T17:25:49.321Z,3.00
2017-08-10T17:28:19.527Z,2.30
2017-08-10T17:30:49.409Z,2.13
2017-08-10T17:33:19.668Z,2.70
2017-08-10T17:35:49.609Z,2.57
2017-08-10T17:38:20.059Z,2.20
2017-08-10T17:40:49.926Z,2.77
2017-08-10T17:43:20.157Z,2.50
2017-08-10T17:45:50.110Z,2.63
2017-08-10T17:48:20.406Z,2.40
2017-08-10T17:50:50.310Z,2.40
2017-08-10T17:53:20.493Z,2.73
2017-08-10T17:55:56.535Z,2.47
2017-08-10T17:58:26.816Z,2.70
2017-08-10T18:01:00.083Z,2.73
2017-08-10T18:03:27.900Z,2.47
2017-08-10T18:05:57.755Z,2.63
2017-08-10T18:08:27.977Z,3.40
2017-08-10T18:10:58.838Z,3.53
2017-08-10T18:13:29.217Z,2.90
2017-08-10T18:15:59.130Z,3.13
2017-08-10T18:18:29.712Z,2.63
2017-08-10T18:20:59.575Z,4.10
2017-08-10T18:23:29.791Z,3.00
2017-08-10T18:25:59.712Z,4.27
2017-08-10T18:28:29.932Z,3.20
2017-08-10T18:30:59.832Z,2.87
2017-08-10T18:33:29.870Z,3.13
2017-08-10T18:36:00.794Z,3.40
2017-08-10T18:38:30.848Z,3.60
2017-08-10T18:41:01.398Z,3.90
2017-08-10T18:43:31.353Z,3.80
2017-08-10T18:46:02.877Z,3.00
2017-08-10T18:48:32.841Z,3.83
2017-08-10T18:51:03.441Z,3.10
2017-08-10T18:53:33.448Z,3.47
2017-08-10T18:56:03.739Z,2.97
2017-08-10T18:58:33.709Z,2.87
2017-08-10T19:01:04.144Z,2.67
2017-08-10T19:03:34.171Z,3.03
2017-08-10T19:06:04.544Z,3.37
2017-08-10T19:08:35.405Z,3.70
2017-08-10T19:11:07.691Z,2.90
2017-08-10T19:13:38.797Z,2.93
2017-08-10T19:16:09.269Z,2.83
2017-08-10T19:18:39.312Z,2.67
2017-08-10T19:21:09.734Z,2.97
2017-08-10T19:23:40.732Z,3.17
2017-08-10T19:26:11.150Z,2.77
2017-08-10T19:28:42.145Z,3.00
2017-08-10T19:31:12.682Z,3.07
2017-08-10T19:33:43.419Z,2.67
2017-08-10T19:36:13.784Z,2.60
2017-08-10T19:38:43.777Z,2.60
2017-08-10T19:41:14.151Z,2.60
2017-08-10T19:43:44.154Z,2.90
2017-08-10T19:46:14.517Z,3.40
2017-08-10T19:48:44.498Z,2.40
2017-08-10T19:51:14.846Z,2.30
2017-08-10T19:53:44.814Z,2.67
2017-08-10T19:56:15.261Z,3.20
2017-08-10T19:58:45.245Z,2.80
2017-08-10T20:01:15.693Z,2.87
2017-08-10T20:03:45.820Z,2.80
2017-08-10T20:06:16.216Z,3.47
2017-08-10T20:08:47.029Z,2.50
2017-08-10T20:11:17.831Z,3.00
2017-08-10T20:13:47.856Z,3.00
2017-08-10T20:16:18.256Z,3.00
2017-08-10T20:18:48.297Z,2.40
2017-08-10T20:21:18.792Z,3.60
2017-08-10T20:23:48.798Z,3.00
2017-08-10T20:26:19.127Z,2.93
2017-08-10T20:28:49.156Z,3.43
2017-08-10T20:31:19.484Z,2.93
2017-08-10T20:33:49.451Z,3.67
2017-08-10T20:36:20.582Z,3.00
2017-08-10T20:38:51.441Z,3.03
2017-08-10T20:41:21.846Z,3.60
2017-08-10T20:43:51.774Z,3.70
2017-08-10T20:46:22.085Z,3.90
2017-08-10T20:48:52.011Z,3.00
2017-08-10T20:51:22.426Z,4.03
2017-08-10T20:53:52.320Z,3.57
2017-08-10T20:56:22.541Z,2.80
2017-08-10T20:58:52.441Z,3.43
2017-08-10T21:01:22.804Z,4.30
2017-08-10T21:03:52.676Z,3.87
2017-08-10T21:06:22.937Z,3.47
2017-08-10T21:08:52.809Z,3.83
2017-08-10T21:11:22.794Z,3.27
2017-08-10T21:13:53.028Z,2.73
2017-08-10T21:16:23.024Z,3.63
2017-08-10T21:18:53.221Z,3.43
2017-08-10T21:21:23.078Z,3.83
2017-08-10T21:23:53.315Z,3.67
2017-08-10T21:26:23.320Z,3.70
2017-08-10T21:28:53.581Z,3.43
2017-08-10T21:31:23.450Z,4.07
2017-08-10T21:33:53.767Z,3.40
2017-08-10T21:36:23.625Z,4.10
2017-08-10T21:38:53.921Z,3.37
2017-08-10T21:41:23.798Z,3.10
2017-08-10T21:43:53.702Z,3.17
2017-08-10T21:46:24.596Z,3.37
2017-08-10T21:48:54.457Z,3.50
2017-08-10T21:51:24.696Z,3.57
2017-08-10T21:53:54.585Z,3.37
2017-08-10T21:56:24.862Z,2.97
2017-08-10T21:58:54.699Z,3.40
2017-08-10T22:01:24.565Z,3.13
2017-08-10T22:03:54.803Z,3.87
2017-08-10T22:06:24.669Z,3.13
2017-08-10T22:08:54.937Z,4.43
2017-08-10T22:11:24.800Z,3.10
2017-08-10T22:13:55.170Z,5.27
2017-08-10T22:16:25.044Z,3.37
2017-08-10T22:18:55.261Z,2.97
2017-08-10T22:21:25.114Z,3.07
2017-08-10T22:23:55.355Z,3.70
2017-08-10T22:26:25.311Z,3.20
2017-08-10T22:28:55.650Z,5.03
2017-08-10T22:31:25.495Z,3.60
2017-08-10T22:33:55.787Z,3.60
2017-08-10T22:36:25.642Z,3.73
2017-08-10T22:38:55.960Z,2.47
2017-08-10T22:41:25.842Z,3.07
2017-08-10T22:43:55.746Z,3.13
2017-08-10T22:46:25.989Z,3.10
2017-08-10T22:48:55.863Z,3.30
2017-08-10T22:51:25.737Z,3.00
2017-08-10T22:53:56.150Z,3.03
2017-08-10T22:56:25.998Z,3.87
2017-08-10T22:58:56.226Z,3.60
2017-08-10T23:01:26.095Z,3.97
2017-08-10T23:03:56.298Z,3.53
2017-08-10T23:06:26.162Z,3.27
2017-08-10T23:08:56.502Z,3.00
2017-08-10T23:11:26.373Z,3.23
2017-08-10T23:13:56.674Z,3.20
2017-08-10T23:16:26.541Z,3.53
2017-08-10T23:18:56.719Z,3.03
2017-08-10T23:21:26.581Z,2.93
2017-08-10T23:23:56.832Z,3.03
2017-08-10T23:26:26.734Z,4.67
2017-08-10T23:28:56.646Z,4.20
2017-08-10T23:31:26.886Z,3.60
2017-08-10T23:33:56.734Z,3.60
2017-08-10T23:36:26.607Z,3.83
2017-08-10T23:38:56.846Z,3.50
2017-08-10T23:41:26.761Z,4.40
2017-08-10T23:43:56.618Z,3.73
2017-08-10T23:46:26.841Z,4.80
2017-08-10T23:48:56.687Z,4.13
2017-08-10T23:51:26.580Z,4.20
2017-08-10T23:53:56.832Z,3.50
2017-08-10T23:56:26.697Z,3.80
2017-08-10T23:58:56.930Z,3.77
